Time;durP1;ratioP1;P1;durP2;ratioP2;P2;SDS_P1;SDS_P2;PMS_P1;PMS_P2;Temp;Humidity;BMP_temperature;BMP_pressure;BME280_temperature;BME280_humidity;BME280_pressure;Samples;Min_cycle;Max_cycle;Signal;HPM_P1;HPM_P2
2022/11/25 00:00:10;;;;;;;1999.90;999.90;;;3.50;99.90;;;;;;4971160;28;20472;-70
2022/11/25 00:02:36;;;;;;;1999.90;999.90;;;3.60;99.90;;;;;;4964354;28;21105;-70
2022/11/25 00:05:03;;;;;;;1999.90;999.90;;;3.60;99.90;;;;;;4955864;28;20495;-70
2022/11/25 00:07:30;;;;;;;1999.90;999.90;;;3.60;99.90;;;;;;4972136;28;20822;-70
2022/11/25 00:09:57;;;;;;;1999.90;999.90;;;3.50;99.90;;;;;;4971820;28;20472;-70
2022/11/25 00:12:24;;;;;;;1999.90;999.90;;;3.60;99.90;;;;;;4972594;28;20448;-70
2022/11/25 00:14:52;;;;;;;1999.90;999.90;;;3.50;99.90;;;;;;4971240;28;20990;-70
2022/11/25 00:17:18;;;;;;;1999.90;999.90;;;3.50;99.90;;;;;;4972493;28;20836;-70
2022/11/25 00:19:47;;;;;;;1999.90;999.90;;;3.50;99.90;;;;;;4971646;28;20476;-70
2022/11/25 00:22:14;;;;;;;1999.90;999.90;;;3.40;99.90;;;;;;4971755;28;20458;-70
2022/11/25 00:24:41;;;;;;;1999.90;999.90;;;3.40;99.90;;;;;;4972149;28;21235;-71
2022/11/25 00:27:08;;;;;;;1999.90;999.90;;;3.20;99.90;;;;;;4971846;28;20837;-70
2022/11/25 00:29:35;;;;;;;1999.90;999.90;;;3.10;99.90;;;;;;4971829;28;20841;-69
2022/11/25 00:32:03;;;;;;;1999.90;999.90;;;3.00;99.90;;;;;;4971763;28;20451;-70
2022/11/25 00:34:30;;;;;;;1999.90;999.90;;;2.90;99.90;;;;;;4971949;28;20964;-70
2022/11/25 00:37:04;;;;;;;1999.90;999.90;;;2.90;99.90;;;;;;5086980;28;20954;-70
2022/11/25 00:39:31;;;;;;;1999.90;999.90;;;2.80;99.90;;;;;;5080580;28;20455;-70
2022/11/25 00:44:47;;;;;;;1999.90;999.90;;;2.70;99.90;;;;;;5027860;28;20433;-70
2022/11/25 00:47:16;;;;;;;1999.90;999.90;;;2.80;99.90;;;;;;5066677;28;20439;-70
2022/11/25 00:49:45;;;;;;;1999.90;999.90;;;2.80;99.90;;;;;;5066482;28;20466;-69
2022/11/25 00:52:16;;;;;;;1999.90;999.90;;;2.80;99.90;;;;;;5066771;28;20453;-69
2022/11/25 00:54:43;;;;;;;1999.90;999.90;;;2.70;99.90;;;;;;5066618;28;20440;-69
2022/11/25 00:57:10;;;;;;;1999.90;999.90;;;2.90;99.90;;;;;;5066742;28;20447;-69
2022/11/25 00:59:37;;;;;;;1999.90;999.90;;;2.80;99.90;;;;;;5065657;28;20474;-69
2022/11/25 01:02:04;;;;;;;1999.90;999.90;;;2.80;99.90;;;;;;5066535;28;20454;-69
2022/11/25 01:04:30;;;;;;;1999.90;999.90;;;2.90;99.90;;;;;;5066612;28;20465;-69
2022/11/25 01:06:58;;;;;;;1999.90;999.90;;;2.90;99.90;;;;;;5066372;28;20439;-69
2022/11/25 01:09:27;;;;;;;1999.90;999.90;;;2.80;99.90;;;;;;5066173;28;20499;-69
2022/11/25 01:11:53;;;;;;;1999.90;999.90;;;2.80;99.90;;;;;;5066338;28;20453;-69
2022/11/25 01:14:21;;;;;;;1999.90;999.90;;;2.90;99.90;;;;;;5061998;28;20504;-69
2022/11/25 01:16:48;;;;;;;1999.90;999.90;;;2.90;99.90;;;;;;5064665;28;20486;-69
2022/11/25 01:19:16;;;;;;;1999.90;999.90;;;3.10;99.90;;;;;;5061975;28;20475;-69
2022/11/25 01:21:43;;;;;;;1999.90;999.90;;;3.10;99.90;;;;;;5069681;28;20457;-69
2022/11/25 01:24:12;;;;;;;1999.90;999.90;;;3.10;99.90;;;;;;5070330;28;20439;-69
2022/11/25 01:26:41;;;;;;;1999.90;999.90;;;3.10;99.90;;;;;;5076813;28;20446;-69
2022/11/25 01:29:13;;;;;;;1999.90;999.90;;;3.10;99.90;;;;;;5066324;28;20466;-69
2022/11/25 01:31:40;;;;;;;1999.90;999.90;;;3.00;99.90;;;;;;5086209;28;20829;-69
2022/11/25 01:34:11;;;;;;;1999.90;999.90;;;3.10;99.90;;;;;;5074404;28;20455;-69
2022/11/25 01:36:38;;;;;;;1999.90;999.90;;;3.10;99.90;;;;;;5071422;28;20531;-69
2022/11/25 01:39:04;;;;;;;1999.90;999.90;;;3.00;99.90;;;;;;5056321;28;20455;-69
2022/11/25 01:41:33;;;;;;;1999.90;999.90;;;3.10;99.90;;;;;;5065546;28;20827;-69
2022/11/25 01:44:11;;;;;;;1999.90;999.90;;;3.20;99.90;;;;;;5065862;28;20478;-69
2022/11/25 01:46:57;;;;;;;1999.90;999.90;;;3.30;99.90;;;;;;5062303;28;20513;-69
2022/11/25 01:49:30;;;;;;;1999.90;999.90;;;3.30;99.90;;;;;;5052169;28;20823;-70
2022/11/25 01:52:02;;;;;;;1999.90;999.90;;;3.40;99.90;;;;;;5052167;28;20451;-68
2022/11/25 01:54:33;;;;;;;1999.90;999.90;;;3.50;99.90;;;;;;5052540;28;20440;-68
2022/11/25 01:57:05;;;;;;;1999.90;999.90;;;3.50;99.90;;;;;;5052223;28;20479;-69
2022/11/25 01:59:39;;;;;;;1999.90;999.90;;;3.50;99.90;;;;;;5052253;28;20473;-68
2022/11/25 02:02:06;;;;;;;1999.90;999.90;;;3.50;99.90;;;;;;5052609;28;20940;-68
2022/11/25 02:04:36;;;;;;;1999.90;999.90;;;3.50;99.90;;;;;;5052299;28;20815;-68
2022/11/25 02:07:09;;;;;;;1999.90;999.90;;;3.50;99.90;;;;;;5052008;28;20444;-68
2022/11/25 02:09:39;;;;;;;1999.90;999.90;;;3.50;99.90;;;;;;5051632;28;20474;-69
2022/11/25 02:12:06;;;;;;;1999.90;999.90;;;3.60;99.90;;;;;;5052345;28;20640;-69
2022/11/25 02:14:35;;;;;;;1999.90;999.90;;;3.70;99.90;;;;;;5052058;28;20544;-68
2022/11/25 02:17:02;;;;;;;1999.90;999.90;;;3.70;99.90;;;;;;5051905;28;20533;-68
2022/11/25 02:19:37;;;;;;;1999.90;999.90;;;3.70;99.90;;;;;;5051270;28;20828;-68
2022/11/25 02:22:09;;;;;;;1999.90;999.90;;;3.60;99.90;;;;;;5052001;28;20444;-68
2022/11/25 02:24:43;;;;;;;1999.90;999.90;;;3.70;99.90;;;;;;5051950;28;20443;-68
2022/11/25 02:27:11;;;;;;;1999.90;999.90;;;3.70;99.90;;;;;;5051821;28;20440;-68
2022/11/25 02:29:39;;;;;;;1999.90;999.90;;;3.70;99.90;;;;;;5051027;28;20479;-68
2022/11/25 02:32:06;;;;;;;1999.90;999.90;;;3.70;99.90;;;;;;5051909;28;20453;-68
2022/11/25 02:34:32;;;;;;;1999.90;999.90;;;3.70;99.90;;;;;;5051924;28;20440;-68
2022/11/25 02:36:59;;;;;;;1999.90;999.90;;;3.70;99.90;;;;;;5051226;28;20583;-68
2022/11/25 02:39:27;;;;;;;1999.90;999.90;;;3.60;99.90;;;;;;5051507;28;20468;-68
2022/11/25 02:41:58;;;;;;;1999.90;999.90;;;3.60;99.90;;;;;;5051387;28;20452;-69
2022/11/25 02:44:27;;;;;;;1999.90;999.90;;;3.70;99.90;;;;;;5050775;28;20500;-68
2022/11/25 02:46:53;;;;;;;1999.90;999.90;;;3.60;99.90;;;;;;5051612;28;20197;-68
2022/11/25 02:49:20;;;;;;;1999.90;999.90;;;3.70;99.90;;;;;;5051286;28;20470;-68
2022/11/25 02:51:47;;;;;;;1999.90;999.90;;;3.70;99.90;;;;;;5051772;28;20452;-68
2022/11/25 02:54:16;;;;;;;1999.90;999.90;;;3.70;99.90;;;;;;5051311;28;20829;-68
2022/11/25 02:56:43;;;;;;;1999.90;999.90;;;3.80;99.90;;;;;;5051334;28;20476;-68
2022/11/25 02:59:10;;;;;;;1999.90;999.90;;;3.80;99.90;;;;;;5049741;28;20842;-68
2022/11/25 03:01:39;;;;;;;1999.90;999.90;;;3.70;99.90;;;;;;5051207;28;20444;-68
2022/11/25 03:04:06;;;;;;;1999.90;999.90;;;3.70;99.90;;;;;;5051261;28;20444;-69
2022/11/25 03:06:33;;;;;;;1999.90;999.90;;;3.70;99.90;;;;;;5051492;28;20530;-68
2022/11/25 03:09:00;;;;;;;1999.90;999.90;;;3.70;99.90;;;;;;5050598;28;20467;-68
2022/11/25 03:14:08;;;;;;;1999.90;999.90;;;3.60;99.90;;;;;;5050743;28;20432;-68
2022/11/25 03:16:34;;;;;;;1999.90;999.90;;;3.60;99.90;;;;;;5050534;28;20483;-68
2022/11/25 03:19:03;;;;;;;1999.90;999.90;;;3.50;99.90;;;;;;5050463;28;20450;-68
2022/11/25 03:21:29;;;;;;;1999.90;999.90;;;3.40;99.90;;;;;;5050687;28;20934;-68
2022/11/25 03:23:56;;;;;;;1999.90;999.90;;;3.40;99.90;;;;;;5050589;28;20942;-68
2022/11/25 03:26:24;;;;;;;1999.90;999.90;;;3.40;99.90;;;;;;5050689;28;20448;-68
2022/11/25 03:28:51;;;;;;;1999.90;999.90;;;3.40;99.90;;;;;;5050057;28;20448;-68
2022/11/25 03:31:18;;;;;;;1999.90;999.90;;;3.40;99.90;;;;;;5050819;28;20447;-68
2022/11/25 03:33:45;;;;;;;1999.90;999.90;;;3.50;99.90;;;;;;5050579;28;20961;-68
2022/11/25 03:36:13;;;;;;;1999.90;999.90;;;3.50;99.90;;;;;;5050308;28;20490;-68
2022/11/25 03:38:40;;;;;;;1999.90;999.90;;;3.40;99.90;;;;;;5049995;28;20957;-68
2022/11/25 03:41:06;;;;;;;1999.90;999.90;;;3.50;99.90;;;;;;5050584;28;20475;-68
2022/11/25 03:43:34;;;;;;;1999.90;999.90;;;3.50;99.90;;;;;;5050514;28;20448;-68
2022/11/25 03:46:01;;;;;;;1999.90;999.90;;;3.40;99.90;;;;;;5050450;28;20454;-68
2022/11/25 03:48:28;;;;;;;1999.90;999.90;;;3.50;99.90;;;;;;5049790;28;20444;-68
2022/11/25 03:50:55;;;;;;;1999.90;999.90;;;3.50;99.90;;;;;;5050175;28;21135;-68
2022/11/25 03:53:23;;;;;;;1999.90;999.90;;;3.60;99.90;;;;;;5050432;28;20833;-68
2022/11/25 03:55:50;;;;;;;1999.90;999.90;;;3.60;99.90;;;;;;5050404;28;20459;-68
2022/11/25 03:58:16;;;;;;;1999.90;999.90;;;3.50;99.90;;;;;;5049856;28;20814;-68
2022/11/25 04:00:43;;;;;;;1999.90;999.90;;;3.60;99.90;;;;;;5050229;28;21001;-68
2022/11/25 04:03:10;;;;;;;1999.90;999.90;;;3.60;99.90;;;;;;5050194;28;20850;-68
2022/11/25 04:05:37;;;;;;;1999.90;999.90;;;3.60;99.90;;;;;;5049889;28;20938;-68
2022/11/25 04:08:04;;;;;;;1999.90;999.90;;;3.60;99.90;;;;;;5050170;28;20451;-68
2022/11/25 04:10:33;;;;;;;1999.90;999.90;;;3.50;99.90;;;;;;5049452;28;20465;-68
2022/11/25 04:12:58;;;;;;;1999.90;999.90;;;3.40;99.90;;;;;;5049987;28;20965;-68
2022/11/25 04:15:25;;;;;;;1999.90;999.90;;;3.40;99.90;;;;;;5049697;28;20450;-68
2022/11/25 04:17:52;;;;;;;1999.90;999.90;;;3.40;99.90;;;;;;5049726;28;20993;-68
2022/11/25 04:20:19;;;;;;;1999.90;999.90;;;3.30;99.90;;;;;;5049399;28;20985;-68
2022/11/25 04:22:46;;;;;;;1999.90;999.90;;;3.30;99.90;;;;;;5050224;28;20454;-67
2022/11/25 04:25:13;;;;;;;1999.90;999.90;;;3.30;99.90;;;;;;5050140;28;20472;-68
2022/11/25 04:27:41;;;;;;;1999.90;999.90;;;3.30;99.90;;;;;;5049971;28;20466;-68
2022/11/25 04:30:08;;;;;;;1999.90;999.90;;;3.30;99.90;;;;;;5049274;28;20471;-68
2022/11/25 04:32:37;;;;;;;1999.90;999.90;;;3.40;99.90;;;;;;5049767;28;20452;-68
2022/11/25 04:35:04;;;;;;;1999.90;999.90;;;3.40;99.90;;;;;;5050033;28;20513;-68
2022/11/25 04:37:31;;;;;;;1999.90;999.90;;;3.40;99.90;;;;;;5049982;28;20482;-68
2022/11/25 04:39:57;;;;;;;1999.90;999.90;;;3.40;99.90;;;;;;5049691;28;20479;-68
2022/11/25 04:42:33;;;;;;;1999.90;999.90;;;3.50;99.90;;;;;;5049756;28;20447;-68
2022/11/25 04:45:03;;;;;;;1999.90;999.90;;;3.50;99.90;;;;;;5050070;28;20526;-68
2022/11/25 04:47:30;;;;;;;1999.90;999.90;;;3.60;99.90;;;;;;5049995;28;20446;-68
2022/11/25 04:49:57;;;;;;;1999.90;999.90;;;3.60;99.90;;;;;;5049590;28;20861;-68
2022/11/25 04:52:24;;;;;;;1999.90;999.90;;;3.70;99.90;;;;;;5049934;28;20450;-68
2022/11/25 04:54:51;;;;;;;1999.90;999.90;;;3.70;99.90;;;;;;5049875;28;20795;-68
2022/11/25 04:57:18;;;;;;;1999.90;999.90;;;3.80;99.90;;;;;;5049424;28;21284;-68
2022/11/25 04:59:44;;;;;;;1999.90;999.90;;;3.80;99.90;;;;;;5049454;28;20464;-68
2022/11/25 05:02:15;;;;;;;1999.90;999.90;;;3.90;99.90;;;;;;5049965;28;20535;-68
2022/11/25 05:04:42;;;;;;;1999.90;999.90;;;3.90;99.90;;;;;;5050158;28;20459;-68
2022/11/25 05:07:10;;;;;;;1999.90;999.90;;;3.90;99.90;;;;;;5050006;28;20446;-68
2022/11/25 05:09:37;;;;;;;1999.90;999.90;;;3.90;99.90;;;;;;5049589;28;20473;-68
2022/11/25 05:12:04;;;;;;;1999.90;999.90;;;3.90;99.90;;;;;;5049684;28;20448;-70
2022/11/25 05:14:31;;;;;;;1999.90;999.90;;;3.90;99.90;;;;;;5049393;28;20452;-68
2022/11/25 05:16:58;;;;;;;1999.90;999.90;;;3.80;99.90;;;;;;5049675;28;20857;-68
2022/11/25 05:19:26;;;;;;;1999.90;999.90;;;3.90;99.90;;;;;;5049093;28;20460;-67
2022/11/25 05:21:53;;;;;;;1999.90;999.90;;;3.90;99.90;;;;;;5049807;28;20467;-68
2022/11/25 05:24:20;;;;;;;1999.90;999.90;;;3.90;99.90;;;;;;5053030;28;20530;-68
2022/11/25 05:26:47;;;;;;;1999.90;999.90;;;3.80;99.90;;;;;;5053640;28;20444;-68
2022/11/25 05:29:13;;;;;;;1999.90;999.90;;;3.80;99.90;;;;;;5052973;28;20467;-68
2022/11/25 05:31:40;;;;;;;1999.90;999.90;;;3.70;99.90;;;;;;5053305;28;20443;-68
2022/11/25 05:34:07;;;;;;;1999.90;999.90;;;3.70;99.90;;;;;;5052954;28;20454;-68
2022/11/25 05:36:35;;;;;;;1999.90;999.90;;;3.70;99.90;;;;;;5052207;28;20475;-68
2022/11/25 05:39:02;;;;;;;1999.90;999.90;;;3.60;99.90;;;;;;5052106;28;20517;-68
2022/11/25 05:41:29;;;;;;;1999.90;999.90;;;3.50;99.90;;;;;;5052830;28;20822;-68
2022/11/25 05:43:56;;;;;;;1999.90;999.90;;;3.50;99.90;;;;;;5052765;28;20459;-67
2022/11/25 05:46:23;;;;;;;1999.90;999.90;;;3.50;99.90;;;;;;5052597;28;20498;-68
2022/11/25 05:48:53;;;;;;;1999.90;999.90;;;3.50;99.90;;;;;;5052157;28;20448;-68
2022/11/25 05:51:20;;;;;;;1999.90;999.90;;;3.50;99.90;;;;;;5051161;28;20543;-68
2022/11/25 05:53:49;;;;;;;1999.90;999.90;;;3.50;99.90;;;;;;5052161;28;20447;-68
2022/11/25 05:56:15;;;;;;;1999.90;999.90;;;3.50;99.90;;;;;;5052292;28;20452;-68
2022/11/25 05:58:42;;;;;;;1999.90;999.90;;;3.40;99.90;;;;;;5052241;28;20448;-70
2022/11/25 06:01:10;;;;;;;1999.90;999.90;;;3.50;99.90;;;;;;5052325;28;20464;-68
2022/11/25 06:03:38;;;;;;;1999.90;999.90;;;3.40;99.90;;;;;;5051246;28;20459;-68
2022/11/25 06:06:06;;;;;;;1999.90;999.90;;;3.40;99.90;;;;;;5051536;28;20527;-69
2022/11/25 06:08:34;;;;;;;1999.90;999.90;;;3.20;99.90;;;;;;5051527;28;21020;-71
2022/11/25 06:11:06;;;;;;;1999.90;999.90;;;3.20;99.90;;;;;;5052216;28;20551;-69
2022/11/25 06:13:33;;;;;;;1999.90;999.90;;;3.20;99.90;;;;;;5051955;28;20486;-68
2022/11/25 06:16:00;;;;;;;1999.90;999.90;;;3.00;99.90;;;;;;5052075;28;20487;-69
2022/11/25 06:18:27;;;;;;;1999.90;999.90;;;2.80;99.90;;;;;;5048683;28;20487;-70
2022/11/25 06:20:57;;;;;;;1999.90;999.90;;;2.80;99.90;;;;;;5051453;28;20468;-69
2022/11/25 06:23:24;;;;;;;1999.90;999.90;;;2.70;99.90;;;;;;5050497;28;20451;-69
2022/11/25 06:25:51;;;;;;;1999.90;999.90;;;2.60;99.90;;;;;;5051197;28;20459;-69
2022/11/25 06:28:19;;;;;;;1999.90;999.90;;;2.60;99.90;;;;;;5052257;28;20519;-69
2022/11/25 06:30:46;;;;;;;1999.90;999.90;;;2.50;99.90;;;;;;5051953;28;21002;-69
2022/11/25 06:33:13;;;;;;;1999.90;999.90;;;2.40;99.90;;;;;;5051493;28;20444;-68
2022/11/25 06:35:39;;;;;;;1999.90;999.90;;;2.40;99.90;;;;;;5051631;28;20587;-69
2022/11/25 06:38:06;;;;;;;1999.90;999.90;;;2.50;99.90;;;;;;5051649;28;20488;-69
2022/11/25 06:40:33;;;;;;;1999.90;999.90;;;2.60;99.90;;;;;;5051304;28;20472;-69
2022/11/25 06:43:00;;;;;;;1999.90;999.90;;;2.60;99.90;;;;;;5051497;28;20444;-69
2022/11/25 06:45:28;;;;;;;1999.90;999.90;;;2.60;99.90;;;;;;5051456;28;20455;-68
2022/11/25 06:47:54;;;;;;;1999.90;999.90;;;2.50;99.90;;;;;;5051408;28;20444;-68
2022/11/25 06:50:21;;;;;;;1999.90;999.90;;;2.50;99.90;;;;;;5051131;28;20467;-69
2022/11/25 06:52:48;;;;;;;1999.90;999.90;;;2.50;99.90;;;;;;5051614;28;20452;-69
2022/11/25 06:55:15;;;;;;;1999.90;999.90;;;2.50;99.90;;;;;;5051580;28;20475;-68
2022/11/25 06:57:42;;;;;;;1999.90;999.90;;;2.50;99.90;;;;;;5051271;28;20480;-68
2022/11/25 07:00:09;;;;;;;1999.90;999.90;;;2.50;99.90;;;;;;5050898;28;20502;-68
2022/11/25 07:02:37;;;;;;;1999.90;999.90;;;2.40;99.90;;;;;;5051303;28;20447;-68
2022/11/25 07:05:04;;;;;;;1999.90;999.90;;;2.40;99.90;;;;;;5051194;28;20446;-68
2022/11/25 07:07:31;;;;;;;1999.90;999.90;;;2.40;99.90;;;;;;5051199;28;20447;-68
2022/11/25 07:09:58;;;;;;;1999.90;999.90;;;2.50;99.90;;;;;;5050551;28;20472;-68
2022/11/25 07:12:25;;;;;;;1999.90;999.90;;;2.60;99.90;;;;;;5050868;28;20451;-68
2022/11/25 07:14:51;;;;;;;1999.90;999.90;;;2.90;99.90;;;;;;5050962;28;20439;-68
2022/11/25 07:17:18;;;;;;;1999.90;999.90;;;3.10;99.90;;;;;;5050942;28;20849;-68
2022/11/25 07:19:46;;;;;;;1999.90;999.90;;;3.30;99.90;;;;;;5050659;28;20463;-68
2022/11/25 07:22:13;;;;;;;1999.90;999.90;;;3.50;99.90;;;;;;5050913;28;20454;-68
2022/11/25 07:24:40;;;;;;;1999.90;999.90;;;3.70;99.90;;;;;;5050896;28;20452;-68
2022/11/25 07:27:07;;;;;;;1999.90;999.90;;;3.80;99.90;;;;;;5050594;28;20440;-68
2022/11/25 07:29:35;;;;;;;1999.90;999.90;;;3.90;99.90;;;;;;5050281;28;20478;-68
2022/11/25 07:32:02;;;;;;;1999.90;999.90;;;3.90;99.90;;;;;;5050732;28;20474;-68
2022/11/25 07:34:29;;;;;;;1999.90;999.90;;;4.00;99.90;;;;;;5050753;28;20547;-68
2022/11/25 07:36:57;;;;;;;1999.90;999.90;;;4.00;99.90;;;;;;5050330;28;20502;-68
2022/11/25 07:39:24;;;;;;;1999.90;999.90;;;4.10;99.90;;;;;;5050218;28;20479;-68
2022/11/25 07:41:51;;;;;;;1999.90;999.90;;;4.10;99.90;;;;;;5050286;28;20443;-68
2022/11/25 07:44:19;;;;;;;1999.90;999.90;;;4.20;99.90;;;;;;5050244;28;20825;-68
2022/11/25 07:46:48;;;;;;;1999.90;999.90;;;4.20;99.90;;;;;;5050277;28;20444;-68
2022/11/25 07:49:16;;;;;;;1999.90;999.90;;;4.40;99.90;;;;;;5050009;28;20496;-68
2022/11/25 07:51:47;;;;;;;1999.90;999.90;;;4.50;99.90;;;;;;5050283;28;20444;-68
2022/11/25 07:54:16;;;;;;;1999.90;999.90;;;4.70;99.90;;;;;;5050063;28;21019;-68
2022/11/25 07:56:44;;;;;;;1999.90;999.90;;;4.80;99.90;;;;;;5050218;28;20448;-68
2022/11/25 07:59:13;;;;;;;1999.90;999.90;;;4.90;99.90;;;;;;5049973;28;20533;-68
2022/11/25 08:01:40;;;;;;;1999.90;999.90;;;5.00;99.90;;;;;;5050215;28;20440;-68
2022/11/25 08:04:12;;;;;;;1999.90;999.90;;;5.00;99.90;;;;;;5050202;28;20439;-68
2022/11/25 08:06:41;;;;;;;1999.90;999.90;;;5.10;99.90;;;;;;5050210;28;20454;-68
2022/11/25 08:09:11;;;;;;;1999.90;999.90;;;5.20;99.90;;;;;;5049876;28;20468;-68
2022/11/25 08:11:46;;;;;;;1999.90;999.90;;;5.20;99.90;;;;;;5050415;28;20436;-68
2022/11/25 08:14:13;;;;;;;1999.90;999.90;;;5.20;99.90;;;;;;5050395;28;20447;-68
2022/11/25 08:16:40;;;;;;;1999.90;999.90;;;5.20;99.90;;;;;;5050050;28;20938;-69
2022/11/25 08:19:12;;;;;;;1999.90;999.90;;;5.30;99.90;;;;;;5049445;28;20483;-69
2022/11/25 08:21:41;;;;;;;1999.90;999.90;;;5.30;99.90;;;;;;5049476;28;20448;-69
2022/11/25 08:24:26;;;;;;;1999.90;999.90;;;5.40;99.90;;;;;;5049970;28;20455;-69
2022/11/25 08:26:57;;;;;;;1999.90;999.90;;;5.40;99.90;;;;;;5049953;28;20828;-68
2022/11/25 08:29:28;;;;;;;1999.90;999.90;;;5.50;99.90;;;;;;5049536;28;20517;-69
2022/11/25 08:31:58;;;;;;;1999.90;999.90;;;5.60;99.90;;;;;;5049535;28;20443;-68
2022/11/25 08:34:25;;;;;;;1999.90;999.90;;;5.70;99.90;;;;;;5049695;28;20440;-69
2022/11/25 08:36:56;;;;;;;1999.90;999.90;;;5.70;99.90;;;;;;5049598;28;20831;-69
2022/11/25 08:39:23;;;;;;;1999.90;999.90;;;5.80;99.90;;;;;;5049777;28;20468;-69
2022/11/25 08:41:57;;;;;;;1999.90;999.90;;;5.70;99.90;;;;;;5049747;28;20963;-69
2022/11/25 08:44:27;;;;;;;1999.90;999.90;;;5.60;99.90;;;;;;5049644;28;20531;-68
2022/11/25 08:46:54;;;;;;;1999.90;999.90;;;5.60;99.90;;;;;;5049686;28;20459;-68
2022/11/25 08:49:25;;;;;;;1999.90;999.90;;;5.50;99.90;;;;;;5049360;28;20464;-68
2022/11/25 08:51:52;;;;;;;1999.90;999.90;;;5.50;99.90;;;;;;5049407;28;20966;-68
2022/11/25 08:54:19;;;;;;;1999.90;999.90;;;5.50;99.90;;;;;;5049088;28;20448;-68
2022/11/25 08:56:48;;;;;;;1999.90;999.90;;;5.60;99.90;;;;;;5049644;28;20439;-68
2022/11/25 08:59:14;;;;;;;1999.90;999.90;;;5.70;99.90;;;;;;5053164;28;20487;-69
2022/11/25 09:01:43;;;;;;;1999.90;999.90;;;5.80;99.90;;;;;;5053550;28;20452;-69
2022/11/25 09:04:11;;;;;;;1999.90;999.90;;;5.80;99.90;;;;;;5053499;28;20539;-68
2022/11/25 09:06:40;;;;;;;1999.90;999.90;;;5.60;99.90;;;;;;5053405;28;20538;-68
2022/11/25 09:09:11;;;;;;;1999.90;999.90;;;5.60;99.90;;;;;;5052995;28;20519;-69
2022/11/25 09:11:39;;;;;;;1999.90;999.90;;;5.60;99.90;;;;;;5053177;28;20444;-68
2022/11/25 09:14:08;;;;;;;1999.90;999.90;;;5.60;99.90;;;;;;5053404;28;20501;-68
2022/11/25 09:16:35;;;;;;;1999.90;999.90;;;5.60;99.90;;;;;;5053237;28;20444;-69
2022/11/25 09:19:05;;;;;;;1999.90;999.90;;;5.80;99.90;;;;;;5052784;28;20487;-69
2022/11/25 09:21:35;;;;;;;1999.90;999.90;;;6.00;99.90;;;;;;5053092;28;20838;-69
2022/11/25 09:24:02;;;;;;;1999.90;999.90;;;6.40;99.90;;;;;;5052894;28;20505;-68
2022/11/25 09:26:34;;;;;;;1999.90;999.90;;;6.80;99.90;;;;;;5053137;28;20522;-69
2022/11/25 09:29:01;;;;;;;1999.90;999.90;;;7.00;99.90;;;;;;5052552;28;20447;-69
2022/11/25 09:31:28;;;;;;;1999.90;999.90;;;7.50;99.90;;;;;;5053132;28;20827;-69
2022/11/25 09:33:59;;;;;;;1999.90;999.90;;;8.00;99.90;;;;;;5052808;28;20819;-69
2022/11/25 09:36:29;;;;;;;1999.90;999.90;;;8.50;99.90;;;;;;5052720;28;20546;-69
2022/11/25 09:38:56;;;;;;;1999.90;999.90;;;8.90;99.90;;;;;;5052387;28;20484;-69
2022/11/25 09:47:45;;;;;;;1999.90;999.90;;;9.30;99.90;;;;;;5052615;28;20438;-69
2022/11/25 09:50:20;;;;;;;1999.90;999.90;;;9.40;99.90;;;;;;5052286;28;20471;-70
2022/11/25 09:52:59;;;;;;;1999.90;999.90;;;9.30;99.90;;;;;;5052424;28;20446;-69
2022/11/25 09:55:29;;;;;;;1999.90;999.90;;;9.40;99.90;;;;;;5052367;28;20447;-69
2022/11/25 09:58:06;;;;;;;1999.90;999.90;;;9.40;99.90;;;;;;5052415;28;20486;-70
2022/11/25 10:00:39;;;;;;;1999.90;999.90;;;9.30;99.90;;;;;;5052071;28;20463;-69
2022/11/25 10:03:15;;;;;;;1999.90;999.90;;;9.40;99.90;;;;;;5052373;28;20447;-69
2022/11/25 10:05:46;;;;;;;1999.90;999.90;;;9.50;99.90;;;;;;5052286;28;20443;-69
2022/11/25 10:08:20;;;;;;;1999.90;999.90;;;9.50;99.90;;;;;;5051478;28;20450;-69
2022/11/25 10:10:49;;;;;;;1999.90;999.90;;;9.50;99.90;;;;;;5052183;28;20467;-69
2022/11/25 10:13:21;;;;;;;1999.90;999.90;;;9.70;99.90;;;;;;5052261;28;20447;-69
2022/11/25 10:15:50;;;;;;;1999.90;999.90;;;9.90;99.90;;;;;;5052061;28;20825;-69
2022/11/25 10:18:23;;;;;;;1999.90;999.90;;;10.20;99.90;;;;;;5051680;28;20483;-68
2022/11/25 10:20:51;;;;;;;1999.90;999.90;;;10.50;99.90;;;;;;5052220;28;20470;-69
2022/11/25 10:23:24;;;;;;;1999.90;999.90;;;10.50;99.90;;;;;;5052038;28;20452;-69
2022/11/25 10:25:55;;;;;;;1999.90;999.90;;;10.50;99.90;;;;;;5051955;28;20531;-68
2022/11/25 10:28:24;;;;;;;1999.90;999.90;;;10.30;99.90;;;;;;5051565;28;20470;-69
2022/11/25 10:30:57;;;;;;;1999.90;999.90;;;10.00;99.90;;;;;;5051888;28;20464;-69
2022/11/25 10:33:28;;;;;;;1999.90;999.90;;;9.90;99.90;;;;;;5051711;28;20462;-69
2022/11/25 10:35:58;;;;;;;1999.90;999.90;;;9.70;99.90;;;;;;5051649;28;20466;-69
2022/11/25 10:38:32;;;;;;;1999.90;999.90;;;9.70;99.90;;;;;;5051355;28;20487;-68
2022/11/25 10:41:02;;;;;;;1999.90;999.90;;;9.70;99.90;;;;;;5051451;28;20468;-69
2022/11/25 10:43:29;;;;;;;1999.90;999.90;;;9.80;99.90;;;;;;5051864;28;20466;-69
2022/11/25 10:46:06;;;;;;;1999.90;999.90;;;9.80;99.90;;;;;;5051723;28;20448;-69
2022/11/25 10:48:53;;;;;;;1999.90;999.90;;;9.90;99.90;;;;;;5051450;28;20444;-69
2022/11/25 10:51:36;;;;;;;1999.90;999.90;;;9.80;99.90;;;;;;5051658;28;20451;-69
2022/11/25 10:54:12;;;;;;;1999.90;999.90;;;9.80;99.90;;;;;;5051751;28;21381;-69
2022/11/25 10:56:50;;;;;;;1999.90;999.90;;;10.10;99.90;;;;;;5051716;28;20836;-68
2022/11/25 10:59:24;;;;;;;1999.90;999.90;;;10.30;99.90;;;;;;5051052;28;20488;-69
2022/11/25 11:01:53;;;;;;;1999.90;999.90;;;10.40;99.90;;;;;;5051393;28;20447;-69
2022/11/25 11:04:20;;;;;;;1999.90;999.90;;;10.50;99.90;;;;;;5050923;28;20448;-69
2022/11/25 11:06:49;;;;;;;1999.90;999.90;;;10.50;99.90;;;;;;5050945;28;20455;-69
2022/11/25 11:09:35;;;;;;;1999.90;999.90;;;10.30;99.90;;;;;;5050861;28;20522;-69
2022/11/25 11:12:15;;;;;;;1999.90;999.90;;;10.40;99.90;;;;;;5051110;28;20470;-69
2022/11/25 11:14:48;;;;;;;1999.90;999.90;;;10.50;99.90;;;;;;5050998;28;20452;-69
2022/11/25 11:17:31;;;;;;;1999.90;999.90;;;10.30;99.90;;;;;;5051178;28;20456;-68
2022/11/25 11:20:21;;;;;;;1999.90;999.90;;;10.00;99.90;;;;;;5049800;28;20499;-69
2022/11/25 11:22:54;;;;;;;1999.90;999.90;;;9.90;99.90;;;;;;5050669;28;20436;-69
2022/11/25 11:25:32;;;;;;;1999.90;999.90;;;9.60;99.90;;;;;;5051119;28;20446;-68
2022/11/25 11:28:00;;;;;;;1999.90;999.90;;;9.50;99.90;;;;;;5050831;28;20812;-68
2022/11/25 11:30:28;;;;;;;1999.90;999.90;;;9.40;99.90;;;;;;5050318;28;20471;-69
2022/11/25 11:32:59;;;;;;;1999.90;999.90;;;9.40;99.90;;;;;;5050609;28;20447;-68
2022/11/25 11:35:34;;;;;;;1999.90;999.90;;;9.40;99.90;;;;;;5050261;28;20474;-69
2022/11/25 11:38:07;;;;;;;1999.90;999.90;;;9.50;99.90;;;;;;5050362;28;21007;-69
2022/11/25 11:40:39;;;;;;;1999.90;999.90;;;9.60;99.90;;;;;;5050095;28;20464;-69
2022/11/25 11:43:20;;;;;;;1999.90;999.90;;;9.60;99.90;;;;;;5050458;28;20552;-68
2022/11/25 11:46:00;;;;;;;1999.90;999.90;;;9.60;99.90;;;;;;5050276;28;20443;-68
2022/11/25 11:48:32;;;;;;;1999.90;999.90;;;9.70;99.90;;;;;;5049970;28;20451;-69
2022/11/25 11:51:08;;;;;;;1999.90;999.90;;;9.80;99.90;;;;;;5050225;28;20468;-69
2022/11/25 11:53:43;;;;;;;1999.90;999.90;;;9.80;99.90;;;;;;5050204;28;20523;-69
2022/11/25 11:56:17;;;;;;;1999.90;999.90;;;9.80;99.90;;;;;;5050304;28;20447;-69
2022/11/25 11:58:57;;;;;;;1999.90;999.90;;;9.70;99.90;;;;;;5050022;28;20490;-69
2022/11/25 12:01:45;;;;;;;1999.90;999.90;;;9.50;99.90;;;;;;5050345;28;20470;-68
2022/11/25 12:04:17;;;;;;;1999.90;999.90;;;9.30;99.90;;;;;;5050157;28;20460;-69
2022/11/25 12:06:54;;;;;;;1999.90;999.90;;;9.10;99.90;;;;;;5049457;28;20460;-68
2022/11/25 12:09:24;;;;;;;1999.90;999.90;;;9.10;99.90;;;;;;5049460;28;20814;-68
2022/11/25 12:11:58;;;;;;;1999.90;999.90;;;8.90;99.90;;;;;;5050129;28;20452;-69
2022/11/25 12:14:32;;;;;;;1999.90;999.90;;;8.90;99.90;;;;;;5050113;28;20440;-69
2022/11/25 12:17:02;;;;;;;1999.90;999.90;;;8.80;99.90;;;;;;5049842;28;20447;-69
2022/11/25 12:19:38;;;;;;;1999.90;999.90;;;8.80;99.90;;;;;;5049661;28;20499;-69
2022/11/25 12:22:09;;;;;;;1999.90;999.90;;;8.80;99.90;;;;;;5049771;28;20440;-68
2022/11/25 12:24:46;;;;;;;1999.90;999.90;;;8.70;99.90;;;;;;5049735;28;20961;-69
2022/11/25 12:27:19;;;;;;;1999.90;999.90;;;8.80;99.90;;;;;;5049887;28;20440;-69
2022/11/25 12:29:52;;;;;;;1999.90;999.90;;;8.80;99.90;;;;;;5049379;28;20965;-69